Latest Weather Observations for Launceston Airport

IDT60801

Issued at 9:01 am EDT Friday 27 March 2015 (issued every 30 minutes, with the page automatically refreshed every 10 minutes)

About weather observations | Map of weather stations | Latest weather observations for TAS | Other Formats
Station Details ID: 091311 Name: LAUNCESTON AIRPORT Lat: -41.55 Lon: 147.21 Height: 166.9 m
Data from the previous 72 hours. | See also: Recent months at Launceston Airport
Date/Time
EDT
Temp
°C
App
Temp
°C
Dew
Point
Rel
Hum
%
Delta-T
°C
Wind Press
QNH
hPa
Press
MSL
hPa
Rain
since 9 am
mm
Dir
 
Spd
km/h
Gust
km/h
Spd
kts
Gust
kts
27/08:30am 5.9 3.1 5.2 95 0.3 N 9 11 5 6 1012.2 1011.9 1.0
27/08:00am 6.2 3.5 5.6 96 0.3 NW 9 11 5 6 1012.1 1011.8 1.0
27/07:52am 5.3 2.8 4.7 96 0.3 WNW 7 11 4 6 1012.1 1011.8 1.0
27/07:31am 3.7 1.8 3.0 95 0.3 E 2 7 1 4 1011.6 1011.4 1.0
27/07:30am 3.8 1.9 3.1 95 0.3 E 2 7 1 4 1011.6 1011.4 1.0
27/07:17am 4.7 2.2 4.0 95 0.3 E 6 7 3 4 1011.3 1011.1 1.0
27/07:00am 3.5 1.2 2.5 93 0.4 SSE 4 7 2 4 1011.2 1011.0 1.0
27/06:39am 4.3 2.9 3.4 94 0.4 CALM 0 2 0 1 1011.1 1010.9 1.0
27/06:30am 4.7 2.2 3.8 94 0.4 SSW 6 7 3 4 1010.9 1010.7 1.0
27/05:30am 5.4 3.0 4.4 93 0.4 E 6 7 3 4 1010.4 1010.1 1.0
27/05:00am 6.1 3.9 5.2 94 0.4 WSW 6 9 3 5 1010.6 1010.4 1.0
27/04:30am 5.5 3.5 4.3 92 0.5 NE 4 9 2 5 1010.3 1010.0 1.0
27/04:00am 5.6 3.6 4.2 91 0.6 W 4 6 2 3 1010.3 1010.0 1.0
27/03:30am 6.7 3.1 5.2 90 0.7 SSW 13 17 7 9 1010.2 1009.9 1.0
27/03:00am 6.9 3.0 5.2 89 0.8 S 15 17 8 9 1010.5 1010.2 1.0
27/02:30am 7.1 4.0 5.4 89 0.8 SSW 11 15 6 8 1010.4 1010.1 0.8
27/02:00am 7.1 4.4 5.7 91 0.6 SSW 9 15 5 8 1010.5 1010.2 0.8
27/01:30am 7.0 4.3 5.6 91 0.6 S 9 11 5 6 1010.3 1010.0 0.8
27/01:00am 7.2 4.2 5.8 91 0.6 S 11 17 6 9 1010.5 1010.2 0.8
27/12:30am 7.6 3.8 5.7 88 0.9 SSW 15 19 8 10 1010.5 1010.2 0.8
 
Date/Time
EDT
Temp
°C
App
Temp
°C
Dew
Point
Rel
Hum
%
Delta-T
°C
Wind Press
QNH
hPa
Press
MSL
hPa
Rain
since 9 am
mm
Dir
 
Spd
km/h
Gust
km/h
Spd
kts
Gust
kts
26/11:30pm 7.3 4.1 5.3 87 0.9 S 11 13 6 7 1010.9 1010.7 0.8
26/11:00pm 7.4 4.4 6.0 91 0.6 SSE 11 15 6 8 1011.4 1011.2 0.8
26/10:30pm 6.7 3.5 5.2 90 0.7 S 11 13 6 7 1011.3 1011.1 0.8
26/10:00pm 7.3 5.1 5.4 88 0.9 SW 6 7 3 4 1011.3 1011.1 0.8
26/09:30pm 7.7 5.4 5.7 87 0.9 NNE 7 9 4 5 1011.7 1011.5 0.8
26/08:30pm 9.0 5.3 6.3 83 1.3 N 15 19 8 10 1011.8 1011.6 0.8
26/08:00pm 9.1 5.7 6.0 81 1.4 N 13 19 7 10 1012.1 1011.8 0.8
26/07:30pm 9.8 5.8 6.7 81 1.5 NNW 17 20 9 11 1012.2 1011.9 0.8
26/07:00pm 10.3 5.2 6.1 75 2.0 NNW 22 30 12 16 1012.0 1011.7 0.8
26/06:30pm 10.5 6.3 5.9 73 2.1 NNW 17 20 9 11 1011.8 1011.6 0.8
26/05:30pm 11.0 5.3 6.6 74 2.1 NNW 26 32 14 17 1011.3 1011.1 0.8
26/05:00pm 12.2 7.0 7.1 71 2.5 NNW 24 33 13 18 1011.4 1011.2 0.8
26/04:30pm 11.5 6.4 7.6 77 1.9 NNW 24 32 13 17 1011.5 1011.3 0.8
26/04:00pm 10.7 4.9 8.1 84 1.3 NNW 28 35 15 19 1011.5 1011.3 0.8
26/03:30pm 10.6 4.5 8.4 86 1.1 NNW 30 39 16 21 1011.4 1011.2 0.8
26/03:00pm 12.9 6.9 7.1 68 2.8 NNW 28 35 15 19 1011.3 1011.1 0.4
26/02:30pm 13.1 7.4 6.5 64 3.2 NNW 26 32 14 17 1011.6 1011.4 0.4
26/02:00pm 12.6 7.2 6.2 65 3.1 N 24 32 13 17 1012.0 1011.7 0.4
26/01:30pm 13.2 9.3 8.5 73 2.4 N 19 26 10 14 1012.1 1011.8 0.4
26/01:00pm 11.2 5.4 8.1 81 1.5 NNW 28 33 15 18 1012.3 1012.0 0.4
26/12:30pm 13.1 7.9 7.1 67 2.9 NNW 24 33 13 18 1012.3 1012.0 0.4
26/12:00pm 13.1 9.2 8.6 74 2.3 NNW 19 28 10 15 1012.3 1012.0 0.4
26/11:30am 12.1 8.0 8.6 79 1.8 N 20 26 11 14 1012.6 1012.3 0.4
26/11:00am 10.7 7.1 8.3 85 1.2 N 17 24 9 13 1012.7 1012.4 0.4
26/10:30am 10.3 7.4 8.2 87 1.0 N 13 17 7 9 1012.6 1012.3 0.4
26/10:00am 9.7 7.1 7.6 87 1.0 N 11 13 6 7 1012.5 1012.2 0.4
26/09:30am 9.8 7.4 8.6 92 0.6 N 11 13 6 7 1012.7 1012.4 0.2
26/09:00am 9.4 6.9 8.2 92 0.6 N 11 15 6 8 1012.8 1012.5 14.0
26/08:30am 9.4 6.2 8.5 94 0.4 NNW 15 17 8 9 1012.7 1012.4 14.0
26/08:00am 9.1 6.9 7.9 92 0.6 NNW 9 17 5 9 1012.1 1011.8 14.0
26/07:30am 8.9 7.3 8.0 94 0.4 SSE 6 7 3 4 1011.7 1011.5 14.0
26/07:00am 8.9 6.4 8.0 94 0.4 S 11 13 6 7 1011.5 1011.3 14.0
26/06:30am 8.7 5.7 7.9 95 0.4 ESE 13 17 7 9 1011.6 1011.4 14.0
26/06:00am 8.6 5.6 7.8 95 0.4 ESE 13 20 7 11 1011.5 1011.3 13.6
26/05:35am 8.6 6.0 7.8 95 0.4 SE 11 13 6 7 1012.7 1012.4 12.2
26/05:30am 8.6 6.0 7.8 95 0.4 SSE 11 15 6 8 1012.6 1012.3 11.8
26/05:00am 8.5 4.3 7.6 94 0.4 SSW 19 26 10 14 1012.7 1012.4 8.0
26/04:30am 8.6 1.8 7.5 93 0.5 SW 33 43 18 23 1011.8 1011.6 3.4
26/04:23am 8.6 1.4 7.5 93 0.5 WSW 35 44 19 24 1011.8 1011.6 2.0
26/04:00am 8.9 4.4 6.9 87 0.9 SW 20 30 11 16 1011.6 1011.4 0.2
26/03:30am 9.8 5.8 6.5 80 1.6 SSW 17 20 9 11 1011.7 1011.5 0.0
26/03:00am 9.6 6.2 6.1 79 1.6 SSE 13 17 7 9 1012.3 1012.0 0.0
26/02:30am 8.7 6.0 5.8 82 1.3 SSE 9 13 5 7 1013.0 1012.7 0.0
26/02:00am 8.4 5.8 5.9 84 1.1 ESE 9 11 5 6 1013.5 1013.2 0.0
26/01:30am 8.3 6.1 5.4 82 1.3 SW 6 7 3 4 1014.0 1013.7 0.0
26/01:00am 8.4 7.2 4.8 78 1.6 CALM 0 0 0 0 1014.3 1014.0 0.0
26/12:30am 8.6 5.7 4.8 77 1.7 N 9 13 5 7 1014.7 1014.4 0.0
26/12:00am 8.7 6.1 6.2 84 1.2 NNW 9 11 5 6 1015.1 1014.8 0.0
 
Date/Time
EDT
Temp
°C
App
Temp
°C
Dew
Point
Rel
Hum
%
Delta-T
°C
Wind Press
QNH
hPa
Press
MSL
hPa
Rain
since 9 am
mm
Dir
 
Spd
km/h
Gust
km/h
Spd
kts
Gust
kts
25/11:30pm 7.8 4.4 5.9 88 0.9 NNW 13 15 7 8 1015.4 1015.1 0.0
25/11:00pm 8.2 5.9 5.7 84 1.1 NNW 7 9 4 5 1014.9 1014.6 0.0
25/10:30pm 7.7 3.7 4.7 81 1.3 N 15 17 8 9 1015.2 1014.9 0.0
25/10:00pm 8.7 5.2 5.6 81 1.4 N 13 15 7 8 1015.1 1014.8 0.0
25/09:30pm 9.4 5.9 5.4 76 1.8 N 13 17 7 9 1015.1 1014.8 0.0
25/09:00pm 10.6 7.3 6.4 75 2.0 NNW 13 17 7 9 1015.0 1014.7 0.0
25/08:30pm 11.4 7.7 6.5 72 2.3 N 15 19 8 10 1014.9 1014.6 0.0
25/08:00pm 10.2 6.5 6.2 76 1.9 NW 15 17 8 9 1014.7 1014.4 0.0
25/07:30pm 10.8 7.0 5.6 70 2.4 NNW 15 19 8 10 1014.5 1014.2 0.0
25/07:00pm 13.3 9.3 6.6 64 3.2 NNW 17 19 9 10 1014.3 1014.0 0.0
25/06:30pm 14.4 9.8 6.5 59 3.8 NNW 20 26 11 14 1014.2 1013.9 0.0
25/06:00pm 14.7 10.2 6.8 59 3.9 NNW 20 26 11 14 1014.2 1013.9 0.0
25/05:30pm 15.0 10.4 6.6 57 4.1 NNW 20 28 11 15 1014.0 1013.7 0.0
25/05:00pm 14.8 9.4 6.4 57 4.1 NNW 24 30 13 16 1013.8 1013.5 0.0
25/04:30pm 15.5 10.8 6.2 54 4.5 NNW 20 28 11 15 1013.7 1013.4 0.0
25/04:00pm 15.0 9.8 5.5 53 4.6 NNW 22 30 12 16 1014.2 1013.9 0.0
25/03:30pm 15.5 10.8 6.0 53 4.6 NNW 20 28 11 15 1014.2 1013.9 0.0
25/03:00pm 15.3 8.4 4.4 48 5.1 NW 30 37 16 20 1014.6 1014.3 0.0
25/02:30pm 16.2 10.7 3.9 44 5.8 NNW 22 33 12 18 1014.8 1014.5 0.0
25/02:00pm 15.9 10.5 4.6 47 5.3 NW 22 30 12 16 1015.0 1014.7 0.0
25/01:30pm 15.6 10.0 3.7 45 5.5 NW 22 32 12 17 1015.5 1015.2 0.0
25/01:00pm 15.0 9.4 3.5 46 5.3 NW 22 33 12 18 1015.8 1015.6 0.0
25/12:30pm 14.6 7.5 3.4 47 5.1 NW 30 37 16 20 1016.4 1016.2 0.0
25/12:00pm 14.3 9.1 3.7 49 4.9 WNW 20 30 11 16 1016.6 1016.4 0.0
25/11:30am 14.5 8.6 3.9 49 4.9 NW 24 33 13 18 1016.6 1016.4 0.0
25/11:00am 13.0 8.7 5.4 60 3.6 NNW 17 26 9 14 1016.8 1016.6 0.0
25/10:30am 12.2 8.5 6.5 68 2.7 N 15 20 8 11 1016.9 1016.7 0.0
25/10:00am 11.7 8.0 6.2 69 2.6 NNW 15 19 8 10 1017.0 1016.8 0.0
25/09:30am 10.7 7.8 6.5 75 2.0 NNW 11 17 6 9 1016.7 1016.5 0.0
25/09:00am 9.1 6.9 6.4 83 1.3 NNW 7 11 4 6 1016.7 1016.5 0.0
25/08:30am 7.9 5.8 5.9 87 0.9 W 6 7 3 4 1016.5 1016.3 0.0
25/08:00am 7.5 5.4 5.6 88 0.9 NW 6 7 3 4 1016.4 1016.2 0.0
25/07:30am 6.3 3.9 4.1 86 0.9 NW 6 7 3 4 1016.1 1015.9 0.0
25/07:00am 7.5 6.2 4.3 80 1.4 CALM 0 2 0 1 1015.9 1015.7 0.0
25/06:30am 8.1 5.8 5.0 81 1.4 WNW 6 6 3 3 1015.9 1015.7 0.0
25/06:00am 8.0 5.5 4.9 81 1.4 WNW 7 9 4 5 1015.7 1015.5 0.0
25/05:30am 8.2 5.5 5.7 84 1.1 W 9 44 5 24 1015.7 1015.5 0.0
25/05:00am 8.5 6.3 6.1 85 1.1 SW 7 9 4 5 1015.5 1015.2 0.0
25/04:30am 8.7 7.6 6.8 88 0.9 SW 2 7 1 4 1015.5 1015.2 0.0
25/04:00am 8.6 7.8 6.7 88 0.9 CALM 0 0 0 0 1015.6 1015.3 0.0
25/03:30am 8.6 7.8 6.4 86 1.0 CALM 0 0 0 0 1015.7 1015.5 0.0
25/03:00am 8.6 7.7 6.2 85 1.1 CALM 0 0 0 0 1015.9 1015.7 0.0
25/02:30am 8.7 7.9 6.5 86 1.0 CALM 0 0 0 0 1016.3 1016.1 0.0
25/02:00am 8.0 6.7 6.1 88 0.9 SW 2 6 1 3 1016.2 1016.0 0.0
25/01:30am 6.7 4.2 4.7 87 0.9 S 7 11 4 6 1016.3 1016.1 0.0
25/01:00am 7.9 6.8 5.0 82 1.3 CALM 0 0 0 0 1016.2 1016.0 0.0
25/12:30am 7.1 5.9 4.8 85 1.0 CALM 0 0 0 0 1016.5 1016.3 0.0
25/12:00am 8.1 7.0 5.2 82 1.3 CALM 0 0 0 0 1016.7 1016.5 0.0
 
Date/Time
EDT
Temp
°C
App
Temp
°C
Dew
Point
Rel
Hum
%
Delta-T
°C
Wind Press
QNH
hPa
Press
MSL
hPa
Rain
since 9 am
mm
Dir
 
Spd
km/h
Gust
km/h
Spd
kts
Gust
kts
24/11:30pm 9.2 7.1 5.8 79 1.6 NE 6 6 3 3 1016.9 1016.7 0.0
24/11:00pm 8.2 5.9 5.8 85 1.1 E 7 11 4 6 1017.3 1017.1 0.0
24/10:30pm 8.0 5.0 5.8 86 1.0 NNW 11 13 6 7 1017.5 1017.3 0.0
24/10:00pm 7.9 4.7 5.2 83 1.2 NNW 11 13 6 7 1017.5 1017.3 0.0
24/09:30pm 9.3 5.5 5.9 79 1.6 NW 15 17 8 9 1017.4 1017.2 0.0
24/09:00pm 9.4 5.5 5.4 76 1.8 NNW 15 19 8 10 1017.2 1017.0 0.0
24/08:30pm 11.1 6.5 5.6 69 2.6 NNW 19 24 10 13 1017.0 1016.8 0.0
24/08:00pm 12.4 7.6 5.8 64 3.1 NNW 20 28 11 15 1016.6 1016.4 0.0
24/07:30pm 13.4 7.9 6.0 61 3.5 NW 24 32 13 17 1016.3 1016.1 0.0
24/07:00pm 14.3 9.8 6.2 58 3.9 NW 19 22 10 12 1016.0 1015.8 0.0
24/06:30pm 15.5 11.2 5.1 50 5.0 NW 17 20 9 11 1015.7 1015.5 0.0
24/06:00pm 16.3 12.4 5.3 48 5.3 N 15 19 8 10 1015.4 1015.1 0.0
24/05:30pm 16.5 12.5 4.9 46 5.6 NNW 15 24 8 13 1015.2 1014.9 0.0
24/05:00pm 17.1 12.7 4.8 44 5.9 NNW 17 24 9 13 1015.1 1014.8 0.0
24/04:30pm 17.1 13.5 4.8 44 5.9 N 13 20 7 11 1015.1 1014.8 0.0
24/04:00pm 17.3 13.1 3.6 40 6.4 NW 15 22 8 12 1015.1 1014.8 0.0
24/03:30pm 17.5 14.7 5.1 44 6.0 NNW 9 17 5 9 1015.2 1014.9 0.0
24/03:00pm 16.0 13.2 3.4 43 5.8 NNW 7 11 4 6 1015.4 1015.1 0.0
24/02:30pm 16.3 13.4 4.4 45 5.6 W 9 15 5 8 1015.7 1015.5 0.0
24/02:00pm 16.1 13.4 5.4 49 5.2 SSE 9 15 5 8 1016.1 1015.9 0.0
24/01:30pm 14.9 11.9 4.3 49 4.9 ESE 9 13 5 7 1016.4 1016.2 0.0
24/01:00pm 14.5 11.2 4.8 52 4.6 ESE 11 17 6 9 1016.8 1016.6 0.0
24/12:30pm 13.7 9.1 3.5 50 4.6 SE 17 24 9 13 1017.2 1017.0 0.0
24/12:00pm 12.2 6.8 2.6 52 4.2 SSE 20 28 11 15 1017.6 1017.4 0.0
24/11:30am 12.3 6.2 3.0 53 4.1 SSE 24 30 13 16 1017.8 1017.6 0.0
24/11:00am 11.3 4.9 3.1 57 3.6 SSE 26 35 14 19 1017.9 1017.7 0.0
24/10:30am 10.8 4.2 2.1 55 3.7 SSE 26 39 14 21 1018.0 1017.8 0.0
24/10:00am 10.7 3.5 3.0 59 3.4 SSE 30 37 16 20 1017.7 1017.5 0.0
24/09:30am 9.2 1.8 1.9 60 3.1 SSE 30 37 16 20 1017.5 1017.3 0.0

Other Formats:

Comma delimited format used in spreadsheet applications
http://www.bom.gov.au/fwo/IDT60801/IDT60801.95966.axf

JavaScript Object Notation format (JSON) in row-major order
http://www.bom.gov.au/fwo/IDT60801/IDT60801.95966.json